sensor_id;sensor_type;location;lat;lon;timestamp;P1;durP1;ratioP1;P2;durP2;ratioP2
47856;SDS011;33618;49.972;8.242;2023-09-19T00:00:48;3.78;;;1.52;;
47856;SDS011;33618;49.972;8.242;2023-09-19T00:03:16;3.58;;;1.42;;
47856;SDS011;33618;49.972;8.242;2023-09-19T00:05:43;4.97;;;1.52;;
47856;SDS011;33618;49.972;8.242;2023-09-19T00:08:11;4.00;;;1.60;;
47856;SDS011;33618;49.972;8.242;2023-09-19T00:10:42;2.53;;;1.50;;
47856;SDS011;33618;49.972;8.242;2023-09-19T00:13:10;4.95;;;1.60;;
47856;SDS011;33618;49.972;8.242;2023-09-19T00:15:46;4.78;;;2.15;;
47856;SDS011;33618;49.972;8.242;2023-09-19T00:18:18;3.63;;;1.80;;
47856;SDS011;33618;49.972;8.242;2023-09-19T00:20:47;2.75;;;1.70;;
47856;SDS011;33618;49.972;8.242;2023-09-19T00:23:16;2.65;;;1.70;;
47856;SDS011;33618;49.972;8.242;2023-09-19T00:25:43;1.63;;;1.52;;
47856;SDS011;33618;49.972;8.242;2023-09-19T00:28:11;2.63;;;1.80;;
47856;SDS011;33618;49.972;8.242;2023-09-19T00:30:39;3.83;;;1.70;;
47856;SDS011;33618;49.972;8.242;2023-09-19T00:33:16;2.05;;;1.42;;
47856;SDS011;33618;49.972;8.242;2023-09-19T00:35:51;3.92;;;1.80;;
47856;SDS011;33618;49.972;8.242;2023-09-19T00:38:20;3.40;;;1.90;;
47856;SDS011;33618;49.972;8.242;2023-09-19T00:40:49;4.13;;;1.77;;
47856;SDS011;33618;49.972;8.242;2023-09-19T00:43:19;2.58;;;1.70;;
47856;SDS011;33618;49.972;8.242;2023-09-19T00:45:48;2.20;;;1.60;;
47856;SDS011;33618;49.972;8.242;2023-09-19T00:48:18;2.67;;;1.63;;
47856;SDS011;33618;49.972;8.242;2023-09-19T00:50:46;4.70;;;1.70;;
47856;SDS011;33618;49.972;8.242;2023-09-19T00:53:15;2.65;;;1.70;;
47856;SDS011;33618;49.972;8.242;2023-09-19T00:55:46;4.53;;;2.10;;
47856;SDS011;33618;49.972;8.242;2023-09-19T00:58:17;2.40;;;1.95;;
47856;SDS011;33618;49.972;8.242;2023-09-19T01:00:45;3.60;;;2.05;;
47856;SDS011;33618;49.972;8.242;2023-09-19T01:03:13;6.95;;;2.00;;
47856;SDS011;33618;49.972;8.242;2023-09-19T01:05:40;3.35;;;1.95;;
47856;SDS011;33618;49.972;8.242;2023-09-19T01:08:08;2.90;;;1.80;;
47856;SDS011;33618;49.972;8.242;2023-09-19T01:10:38;4.18;;;1.92;;
47856;SDS011;33618;49.972;8.242;2023-09-19T01:21:26;2.58;;;1.83;;
47856;SDS011;33618;49.972;8.242;2023-09-19T01:30:09;3.63;;;2.17;;
47856;SDS011;33618;49.972;8.242;2023-09-19T01:32:39;4.82;;;2.20;;
47856;SDS011;33618;49.972;8.242;2023-09-19T01:35:07;4.95;;;2.20;;
47856;SDS011;33618;49.972;8.242;2023-09-19T01:37:38;2.78;;;1.75;;
47856;SDS011;33618;49.972;8.242;2023-09-19T01:40:09;3.05;;;1.80;;
47856;SDS011;33618;49.972;8.242;2023-09-19T01:42:53;6.18;;;2.25;;
47856;SDS011;33618;49.972;8.242;2023-09-19T01:45:45;2.10;;;2.00;;
47856;SDS011;33618;49.972;8.242;2023-09-19T01:51:00;3.60;;;2.00;;
47856;SDS011;33618;49.972;8.242;2023-09-19T01:53:33;4.57;;;2.10;;
47856;SDS011;33618;49.972;8.242;2023-09-19T01:56:02;2.13;;;1.70;;
47856;SDS011;33618;49.972;8.242;2023-09-19T01:58:41;2.60;;;1.90;;
47856;SDS011;33618;49.972;8.242;2023-09-19T02:01:17;3.53;;;2.20;;
47856;SDS011;33618;49.972;8.242;2023-09-19T02:03:48;9.05;;;2.40;;
47856;SDS011;33618;49.972;8.242;2023-09-19T02:06:17;2.85;;;2.05;;
47856;SDS011;33618;49.972;8.242;2023-09-19T02:08:45;2.75;;;2.10;;
47856;SDS011;33618;49.972;8.242;2023-09-19T02:11:13;2.75;;;2.13;;
47856;SDS011;33618;49.972;8.242;2023-09-19T02:13:41;5.22;;;1.80;;
47856;SDS011;33618;49.972;8.242;2023-09-19T02:16:09;3.50;;;2.20;;
47856;SDS011;33618;49.972;8.242;2023-09-19T02:18:38;2.20;;;2.00;;
47856;SDS011;33618;49.972;8.242;2023-09-19T02:21:05;4.30;;;2.05;;
47856;SDS011;33618;49.972;8.242;2023-09-19T02:23:38;2.85;;;2.15;;
47856;SDS011;33618;49.972;8.242;2023-09-19T02:26:06;2.10;;;1.85;;
47856;SDS011;33618;49.972;8.242;2023-09-19T02:28:33;3.78;;;1.83;;
47856;SDS011;33618;49.972;8.242;2023-09-19T02:31:02;3.00;;;1.80;;
47856;SDS011;33618;49.972;8.242;2023-09-19T02:33:31;3.08;;;1.92;;
47856;SDS011;33618;49.972;8.242;2023-09-19T02:35:59;4.60;;;2.00;;
47856;SDS011;33618;49.972;8.242;2023-09-19T02:38:27;4.78;;;1.77;;
47856;SDS011;33618;49.972;8.242;2023-09-19T02:40:55;3.78;;;1.75;;
47856;SDS011;33618;49.972;8.242;2023-09-19T02:43:22;5.45;;;1.77;;
47856;SDS011;33618;49.972;8.242;2023-09-19T02:45:50;4.60;;;2.00;;
47856;SDS011;33618;49.972;8.242;2023-09-19T02:48:19;3.10;;;2.08;;
47856;SDS011;33618;49.972;8.242;2023-09-19T02:50:50;1.98;;;1.80;;
47856;SDS011;33618;49.972;8.242;2023-09-19T02:53:17;2.78;;;2.05;;
47856;SDS011;33618;49.972;8.242;2023-09-19T02:55:46;5.15;;;1.80;;
47856;SDS011;33618;49.972;8.242;2023-09-19T02:58:13;2.72;;;1.63;;
47856;SDS011;33618;49.972;8.242;2023-09-19T03:00:41;3.90;;;1.70;;
47856;SDS011;33618;49.972;8.242;2023-09-19T03:03:09;4.10;;;1.85;;
47856;SDS011;33618;49.972;8.242;2023-09-19T03:05:36;2.92;;;1.70;;
47856;SDS011;33618;49.972;8.242;2023-09-19T03:08:04;7.03;;;1.90;;
47856;SDS011;33618;49.972;8.242;2023-09-19T03:10:32;2.95;;;1.90;;
47856;SDS011;33618;49.972;8.242;2023-09-19T03:12:59;2.65;;;2.00;;
47856;SDS011;33618;49.972;8.242;2023-09-19T03:15:26;2.65;;;2.30;;
47856;SDS011;33618;49.972;8.242;2023-09-19T03:17:53;2.42;;;2.03;;
47856;SDS011;33618;49.972;8.242;2023-09-19T03:20:20;3.60;;;1.90;;
47856;SDS011;33618;49.972;8.242;2023-09-19T03:22:47;4.28;;;2.00;;
47856;SDS011;33618;49.972;8.242;2023-09-19T03:25:15;3.00;;;2.10;;
47856;SDS011;33618;49.972;8.242;2023-09-19T03:27:44;3.60;;;1.90;;
47856;SDS011;33618;49.972;8.242;2023-09-19T03:30:10;2.75;;;1.80;;
47856;SDS011;33618;49.972;8.242;2023-09-19T03:32:44;2.47;;;2.17;;
47856;SDS011;33618;49.972;8.242;2023-09-19T03:35:16;3.38;;;2.00;;
47856;SDS011;33618;49.972;8.242;2023-09-19T03:37:43;3.53;;;2.00;;
47856;SDS011;33618;49.972;8.242;2023-09-19T03:40:11;4.30;;;1.90;;
47856;SDS011;33618;49.972;8.242;2023-09-19T03:42:39;3.15;;;1.90;;
47856;SDS011;33618;49.972;8.242;2023-09-19T03:45:07;4.80;;;2.17;;
47856;SDS011;33618;49.972;8.242;2023-09-19T03:47:39;2.58;;;1.95;;
47856;SDS011;33618;49.972;8.242;2023-09-19T03:50:07;2.78;;;2.08;;
47856;SDS011;33618;49.972;8.242;2023-09-19T03:52:37;3.03;;;2.17;;
47856;SDS011;33618;49.972;8.242;2023-09-19T03:55:04;4.20;;;2.10;;
47856;SDS011;33618;49.972;8.242;2023-09-19T03:57:32;4.78;;;2.03;;
47856;SDS011;33618;49.972;8.242;2023-09-19T04:00:01;3.13;;;2.20;;
47856;SDS011;33618;49.972;8.242;2023-09-19T04:02:29;4.47;;;2.28;;
47856;SDS011;33618;49.972;8.242;2023-09-19T04:04:59;3.75;;;2.20;;
47856;SDS011;33618;49.972;8.242;2023-09-19T04:07:26;2.47;;;2.15;;
47856;SDS011;33618;49.972;8.242;2023-09-19T04:09:55;5.47;;;2.25;;
47856;SDS011;33618;49.972;8.242;2023-09-19T04:12:22;2.85;;;2.08;;
47856;SDS011;33618;49.972;8.242;2023-09-19T04:14:49;2.10;;;1.90;;
47856;SDS011;33618;49.972;8.242;2023-09-19T04:17:16;6.70;;;2.33;;
47856;SDS011;33618;49.972;8.242;2023-09-19T04:19:45;2.47;;;2.28;;
47856;SDS011;33618;49.972;8.242;2023-09-19T04:22:12;2.95;;;2.28;;
47856;SDS011;33618;49.972;8.242;2023-09-19T04:24:39;4.07;;;2.25;;
47856;SDS011;33618;49.972;8.242;2023-09-19T04:27:06;3.65;;;2.42;;
47856;SDS011;33618;49.972;8.242;2023-09-19T04:29:33;5.47;;;2.83;;
47856;SDS011;33618;49.972;8.242;2023-09-19T04:32:01;2.80;;;2.47;;
47856;SDS011;33618;49.972;8.242;2023-09-19T04:34:32;2.67;;;2.42;;
47856;SDS011;33618;49.972;8.242;2023-09-19T04:37:01;5.97;;;2.47;;
47856;SDS011;33618;49.972;8.242;2023-09-19T04:39:32;4.10;;;2.25;;
47856;SDS011;33618;49.972;8.242;2023-09-19T04:42:00;3.25;;;2.20;;
47856;SDS011;33618;49.972;8.242;2023-09-19T04:44:27;2.40;;;2.15;;
47856;SDS011;33618;49.972;8.242;2023-09-19T04:46:54;3.45;;;2.22;;
47856;SDS011;33618;49.972;8.242;2023-09-19T04:49:21;4.47;;;2.10;;
47856;SDS011;33618;49.972;8.242;2023-09-19T04:51:48;3.13;;;1.92;;
47856;SDS011;33618;49.972;8.242;2023-09-19T04:54:15;2.92;;;1.83;;
47856;SDS011;33618;49.972;8.242;2023-09-19T04:56:42;3.88;;;2.15;;
47856;SDS011;33618;49.972;8.242;2023-09-19T04:59:09;6.78;;;2.40;;
47856;SDS011;33618;49.972;8.242;2023-09-19T05:01:37;4.00;;;2.17;;
47856;SDS011;33618;49.972;8.242;2023-09-19T05:04:04;4.18;;;2.10;;
47856;SDS011;33618;49.972;8.242;2023-09-19T05:06:31;4.60;;;2.17;;
47856;SDS011;33618;49.972;8.242;2023-09-19T05:08:59;5.05;;;2.05;;
47856;SDS011;33618;49.972;8.242;2023-09-19T05:11:26;3.13;;;2.40;;
47856;SDS011;33618;49.972;8.242;2023-09-19T05:13:56;4.00;;;2.10;;
47856;SDS011;33618;49.972;8.242;2023-09-19T05:16:23;3.03;;;2.05;;
47856;SDS011;33618;49.972;8.242;2023-09-19T05:18:50;4.15;;;2.13;;
47856;SDS011;33618;49.972;8.242;2023-09-19T05:21:17;4.90;;;2.08;;
47856;SDS011;33618;49.972;8.242;2023-09-19T05:23:44;5.25;;;2.13;;
47856;SDS011;33618;49.972;8.242;2023-09-19T05:26:11;3.75;;;1.95;;
47856;SDS011;33618;49.972;8.242;2023-09-19T05:28:39;3.70;;;2.10;;
47856;SDS011;33618;49.972;8.242;2023-09-19T05:31:06;5.30;;;2.28;;
47856;SDS011;33618;49.972;8.242;2023-09-19T05:33:33;4.68;;;2.40;;
47856;SDS011;33618;49.972;8.242;2023-09-19T05:36:00;6.00;;;2.30;;
47856;SDS011;33618;49.972;8.242;2023-09-19T05:38:27;2.72;;;2.25;;
47856;SDS011;33618;49.972;8.242;2023-09-19T05:40:54;4.82;;;2.45;;
47856;SDS011;33618;49.972;8.242;2023-09-19T05:43:21;4.65;;;2.00;;
47856;SDS011;33618;49.972;8.242;2023-09-19T05:45:48;4.78;;;2.17;;
47856;SDS011;33618;49.972;8.242;2023-09-19T05:48:18;5.13;;;2.50;;
47856;SDS011;33618;49.972;8.242;2023-09-19T05:50:47;4.80;;;2.45;;
47856;SDS011;33618;49.972;8.242;2023-09-19T05:53:15;5.85;;;2.30;;
47856;SDS011;33618;49.972;8.242;2023-09-19T05:55:42;5.70;;;2.28;;
47856;SDS011;33618;49.972;8.242;2023-09-19T05:58:09;6.40;;;2.30;;
47856;SDS011;33618;49.972;8.242;2023-09-19T06:00:37;8.77;;;2.30;;
47856;SDS011;33618;49.972;8.242;2023-09-19T06:03:05;4.53;;;2.25;;
47856;SDS011;33618;49.972;8.242;2023-09-19T06:05:32;4.50;;;2.13;;
47856;SDS011;33618;49.972;8.242;2023-09-19T06:07:59;4.30;;;2.35;;
47856;SDS011;33618;49.972;8.242;2023-09-19T06:10:27;3.28;;;2.05;;
47856;SDS011;33618;49.972;8.242;2023-09-19T06:12:55;3.55;;;2.42;;
47856;SDS011;33618;49.972;8.242;2023-09-19T06:15:24;3.28;;;1.90;;
47856;SDS011;33618;49.972;8.242;2023-09-19T06:17:53;4.68;;;2.13;;
47856;SDS011;33618;49.972;8.242;2023-09-19T06:20:25;6.53;;;2.10;;
47856;SDS011;33618;49.972;8.242;2023-09-19T06:22:53;4.72;;;2.13;;
47856;SDS011;33618;49.972;8.242;2023-09-19T06:25:21;4.50;;;2.33;;
47856;SDS011;33618;49.972;8.242;2023-09-19T06:27:49;5.13;;;2.33;;
47856;SDS011;33618;49.972;8.242;2023-09-19T06:30:20;6.40;;;2.47;;
47856;SDS011;33618;49.972;8.242;2023-09-19T06:32:55;3.92;;;2.03;;
47856;SDS011;33618;49.972;8.242;2023-09-19T06:35:22;4.20;;;2.20;;
47856;SDS011;33618;49.972;8.242;2023-09-19T06:37:50;5.40;;;2.20;;
47856;SDS011;33618;49.972;8.242;2023-09-19T06:40:17;2.05;;;1.80;;
47856;SDS011;33618;49.972;8.242;2023-09-19T06:42:46;5.35;;;2.38;;
47856;SDS011;33618;49.972;8.242;2023-09-19T06:45:16;4.68;;;2.20;;
47856;SDS011;33618;49.972;8.242;2023-09-19T06:47:48;6.72;;;2.30;;
47856;SDS011;33618;49.972;8.242;2023-09-19T06:50:18;6.35;;;2.20;;
47856;SDS011;33618;49.972;8.242;2023-09-19T06:52:52;6.43;;;2.00;;
47856;SDS011;33618;49.972;8.242;2023-09-19T06:55:21;7.50;;;3.10;;
47856;SDS011;33618;49.972;8.242;2023-09-19T06:57:51;4.28;;;1.98;;
47856;SDS011;33618;49.972;8.242;2023-09-19T07:00:20;4.35;;;2.28;;
47856;SDS011;33618;49.972;8.242;2023-09-19T07:05:27;7.50;;;1.90;;
47856;SDS011;33618;49.972;8.242;2023-09-19T07:07:54;4.70;;;1.90;;
47856;SDS011;33618;49.972;8.242;2023-09-19T07:10:22;4.93;;;2.03;;
47856;SDS011;33618;49.972;8.242;2023-09-19T07:13:00;4.15;;;2.00;;
47856;SDS011;33618;49.972;8.242;2023-09-19T07:15:29;2.80;;;1.77;;
47856;SDS011;33618;49.972;8.242;2023-09-19T07:18:02;3.53;;;2.00;;
47856;SDS011;33618;49.972;8.242;2023-09-19T07:20:29;4.50;;;1.70;;
47856;SDS011;33618;49.972;8.242;2023-09-19T07:22:58;4.80;;;1.77;;
47856;SDS011;33618;49.972;8.242;2023-09-19T07:25:26;4.15;;;1.83;;
47856;SDS011;33618;49.972;8.242;2023-09-19T07:27:55;3.60;;;1.63;;
47856;SDS011;33618;49.972;8.242;2023-09-19T07:30:23;2.75;;;1.63;;
47856;SDS011;33618;49.972;8.242;2023-09-19T07:32:49;3.65;;;2.22;;
47856;SDS011;33618;49.972;8.242;2023-09-19T07:35:16;5.38;;;1.80;;
47856;SDS011;33618;49.972;8.242;2023-09-19T07:37:45;4.32;;;1.90;;
47856;SDS011;33618;49.972;8.242;2023-09-19T07:40:19;4.20;;;1.52;;
47856;SDS011;33618;49.972;8.242;2023-09-19T07:42:47;4.18;;;1.95;;
47856;SDS011;33618;49.972;8.242;2023-09-19T07:45:14;3.17;;;1.38;;
47856;SDS011;33618;49.972;8.242;2023-09-19T07:47:44;3.20;;;1.60;;
47856;SDS011;33618;49.972;8.242;2023-09-19T07:50:15;3.97;;;1.73;;
47856;SDS011;33618;49.972;8.242;2023-09-19T07:52:45;4.05;;;1.70;;
47856;SDS011;33618;49.972;8.242;2023-09-19T07:55:13;2.20;;;1.67;;
47856;SDS011;33618;49.972;8.242;2023-09-19T07:57:43;5.97;;;1.83;;
47856;SDS011;33618;49.972;8.242;2023-09-19T08:00:10;2.47;;;1.63;;
47856;SDS011;33618;49.972;8.242;2023-09-19T08:02:41;4.35;;;1.50;;
47856;SDS011;33618;49.972;8.242;2023-09-19T08:05:09;3.30;;;1.50;;
47856;SDS011;33618;49.972;8.242;2023-09-19T08:07:38;4.47;;;2.13;;
47856;SDS011;33618;49.972;8.242;2023-09-19T08:10:07;4.13;;;1.65;;
47856;SDS011;33618;49.972;8.242;2023-09-19T08:12:34;6.85;;;3.75;;
47856;SDS011;33618;49.972;8.242;2023-09-19T08:15:05;7.47;;;2.15;;
47856;SDS011;33618;49.972;8.242;2023-09-19T08:17:34;4.03;;;1.70;;
47856;SDS011;33618;49.972;8.242;2023-09-19T08:20:01;5.22;;;1.92;;
47856;SDS011;33618;49.972;8.242;2023-09-19T08:22:31;4.10;;;1.88;;
47856;SDS011;33618;49.972;8.242;2023-09-19T08:24:58;3.28;;;1.90;;
47856;SDS011;33618;49.972;8.242;2023-09-19T08:27:25;7.47;;;2.00;;
47856;SDS011;33618;49.972;8.242;2023-09-19T08:29:55;6.43;;;1.95;;
47856;SDS011;33618;49.972;8.242;2023-09-19T08:32:22;5.60;;;1.73;;
47856;SDS011;33618;49.972;8.242;2023-09-19T08:34:50;8.30;;;1.98;;
47856;SDS011;33618;49.972;8.242;2023-09-19T08:37:17;5.38;;;1.73;;
47856;SDS011;33618;49.972;8.242;2023-09-19T08:39:45;4.90;;;1.80;;
47856;SDS011;33618;49.972;8.242;2023-09-19T08:42:12;5.90;;;1.95;;
47856;SDS011;33618;49.972;8.242;2023-09-19T08:44:39;5.88;;;2.00;;
47856;SDS011;33618;49.972;8.242;2023-09-19T08:47:09;6.43;;;1.90;;
47856;SDS011;33618;49.972;8.242;2023-09-19T08:49:53;4.90;;;1.95;;
47856;SDS011;33618;49.972;8.242;2023-09-19T08:52:37;3.75;;;1.77;;
47856;SDS011;33618;49.972;8.242;2023-09-19T08:55:10;4.93;;;2.15;;
47856;SDS011;33618;49.972;8.242;2023-09-19T08:57:39;6.07;;;2.00;;
47856;SDS011;33618;49.972;8.242;2023-09-19T09:00:09;4.75;;;1.80;;
47856;SDS011;33618;49.972;8.242;2023-09-19T09:02:38;5.20;;;2.00;;
47856;SDS011;33618;49.972;8.242;2023-09-19T09:05:09;6.18;;;2.05;;
47856;SDS011;33618;49.972;8.242;2023-09-19T09:07:37;4.57;;;1.98;;
47856;SDS011;33618;49.972;8.242;2023-09-19T09:10:05;4.15;;;1.88;;
47856;SDS011;33618;49.972;8.242;2023-09-19T09:12:34;4.93;;;1.80;;
47856;SDS011;33618;49.972;8.242;2023-09-19T09:15:07;8.40;;;2.67;;
47856;SDS011;33618;49.972;8.242;2023-09-19T09:17:38;5.15;;;2.08;;
47856;SDS011;33618;49.972;8.242;2023-09-19T09:20:05;5.38;;;2.00;;
47856;SDS011;33618;49.972;8.242;2023-09-19T09:22:34;6.38;;;1.80;;
47856;SDS011;33618;49.972;8.242;2023-09-19T09:25:03;5.63;;;1.85;;
47856;SDS011;33618;49.972;8.242;2023-09-19T09:27:31;4.80;;;1.75;;
47856;SDS011;33618;49.972;8.242;2023-09-19T09:29:58;8.18;;;2.55;;
47856;SDS011;33618;49.972;8.242;2023-09-19T09:32:29;7.95;;;2.25;;
47856;SDS011;33618;49.972;8.242;2023-09-19T09:35:00;6.80;;;2.20;;
47856;SDS011;33618;49.972;8.242;2023-09-19T09:37:28;6.80;;;2.00;;
47856;SDS011;33618;49.972;8.242;2023-09-19T09:40:01;7.03;;;2.28;;
47856;SDS011;33618;49.972;8.242;2023-09-19T09:42:40;5.35;;;2.22;;
47856;SDS011;33618;49.972;8.242;2023-09-19T09:50:27;5.93;;;2.10;;
47856;SDS011;33618;49.972;8.242;2023-09-19T09:53:21;6.72;;;1.95;;
47856;SDS011;33618;49.972;8.242;2023-09-19T09:55:57;5.85;;;2.10;;
47856;SDS011;33618;49.972;8.242;2023-09-19T09:58:27;3.03;;;1.80;;
47856;SDS011;33618;49.972;8.242;2023-09-19T10:00:58;6.45;;;2.00;;
47856;SDS011;33618;49.972;8.242;2023-09-19T10:03:33;5.03;;;2.15;;
47856;SDS011;33618;49.972;8.242;2023-09-19T10:06:12;6.97;;;2.30;;
47856;SDS011;33618;49.972;8.242;2023-09-19T10:08:59;6.20;;;2.28;;
47856;SDS011;33618;49.972;8.242;2023-09-19T10:11:38;4.90;;;2.20;;
47856;SDS011;33618;49.972;8.242;2023-09-19T10:14:11;6.57;;;2.20;;
47856;SDS011;33618;49.972;8.242;2023-09-19T10:16:45;4.45;;;1.80;;
47856;SDS011;33618;49.972;8.242;2023-09-19T10:22:19;7.22;;;2.13;;
47856;SDS011;33618;49.972;8.242;2023-09-19T10:24:48;5.00;;;1.98;;
47856;SDS011;33618;49.972;8.242;2023-09-19T10:27:28;3.50;;;1.83;;
47856;SDS011;33618;49.972;8.242;2023-09-19T10:30:04;3.67;;;1.77;;
47856;SDS011;33618;49.972;8.242;2023-09-19T10:32:34;5.03;;;1.75;;
47856;SDS011;33618;49.972;8.242;2023-09-19T10:35:03;3.10;;;1.80;;
47856;SDS011;33618;49.972;8.242;2023-09-19T10:37:33;3.15;;;2.05;;
47856;SDS011;33618;49.972;8.242;2023-09-19T10:40:05;4.30;;;2.03;;
47856;SDS011;33618;49.972;8.242;2023-09-19T10:42:35;4.88;;;1.80;;
47856;SDS011;33618;49.972;8.242;2023-09-19T10:45:04;10.23;;;2.40;;
47856;SDS011;33618;49.972;8.242;2023-09-19T10:47:39;8.13;;;2.13;;
47856;SDS011;33618;49.972;8.242;2023-09-19T10:50:06;5.38;;;1.88;;
47856;SDS011;33618;49.972;8.242;2023-09-19T10:52:37;5.75;;;2.00;;
47856;SDS011;33618;49.972;8.242;2023-09-19T10:55:06;7.30;;;2.10;;
47856;SDS011;33618;49.972;8.242;2023-09-19T10:57:36;5.80;;;2.22;;
47856;SDS011;33618;49.972;8.242;2023-09-19T11:00:06;6.55;;;2.10;;
47856;SDS011;33618;49.972;8.242;2023-09-19T11:05:41;6.93;;;2.38;;
47856;SDS011;33618;49.972;8.242;2023-09-19T11:08:09;6.07;;;2.05;;
47856;SDS011;33618;49.972;8.242;2023-09-19T11:10:47;4.45;;;2.10;;
47856;SDS011;33618;49.972;8.242;2023-09-19T11:13:25;4.50;;;2.00;;
47856;SDS011;33618;49.972;8.242;2023-09-19T11:26:43;5.30;;;2.20;;
47856;SDS011;33618;49.972;8.242;2023-09-19T11:29:24;7.40;;;2.05;;
47856;SDS011;33618;49.972;8.242;2023-09-19T11:31:55;6.05;;;2.50;;
47856;SDS011;33618;49.972;8.242;2023-09-19T11:34:44;4.15;;;2.00;;
47856;SDS011;33618;49.972;8.242;2023-09-19T11:39:40;6.10;;;1.88;;
47856;SDS011;33618;49.972;8.242;2023-09-19T11:42:44;5.70;;;2.25;;
47856;SDS011;33618;49.972;8.242;2023-09-19T11:46:00;4.38;;;1.77;;
47856;SDS011;33618;49.972;8.242;2023-09-19T11:48:18;6.82;;;2.15;;
47856;SDS011;33618;49.972;8.242;2023-09-19T11:50:46;6.40;;;1.85;;
47856;SDS011;33618;49.972;8.242;2023-09-19T11:53:14;4.10;;;1.75;;
47856;SDS011;33618;49.972;8.242;2023-09-19T11:55:42;5.93;;;1.80;;
47856;SDS011;33618;49.972;8.242;2023-09-19T11:58:10;6.53;;;2.17;;
47856;SDS011;33618;49.972;8.242;2023-09-19T12:00:40;4.13;;;1.80;;
47856;SDS011;33618;49.972;8.242;2023-09-19T12:03:10;2.85;;;1.58;;
47856;SDS011;33618;49.972;8.242;2023-09-19T12:05:40;6.43;;;2.25;;
47856;SDS011;33618;49.972;8.242;2023-09-19T12:08:07;4.45;;;1.92;;
47856;SDS011;33618;49.972;8.242;2023-09-19T12:10:44;4.75;;;1.80;;
47856;SDS011;33618;49.972;8.242;2023-09-19T12:13:15;3.55;;;1.67;;
47856;SDS011;33618;49.972;8.242;2023-09-19T12:15:44;3.90;;;1.83;;
47856;SDS011;33618;49.972;8.242;2023-09-19T12:18:29;3.22;;;1.60;;
47856;SDS011;33618;49.972;8.242;2023-09-19T12:20:57;2.63;;;1.60;;
47856;SDS011;33618;49.972;8.242;2023-09-19T12:23:24;5.47;;;1.92;;
47856;SDS011;33618;49.972;8.242;2023-09-19T12:25:52;6.55;;;1.90;;
47856;SDS011;33618;49.972;8.242;2023-09-19T12:28:26;3.47;;;1.70;;
47856;SDS011;33618;49.972;8.242;2023-09-19T12:31:06;3.88;;;1.65;;
47856;SDS011;33618;49.972;8.242;2023-09-19T12:33:34;4.18;;;1.83;;
47856;SDS011;33618;49.972;8.242;2023-09-19T12:36:19;3.35;;;1.77;;
47856;SDS011;33618;49.972;8.242;2023-09-19T12:38:51;5.70;;;1.90;;
47856;SDS011;33618;49.972;8.242;2023-09-19T12:41:19;3.85;;;1.58;;
47856;SDS011;33618;49.972;8.242;2023-09-19T12:43:48;3.30;;;1.55;;
47856;SDS011;33618;49.972;8.242;2023-09-19T12:46:19;5.07;;;1.58;;
47856;SDS011;33618;49.972;8.242;2023-09-19T12:51:48;3.45;;;1.70;;
47856;SDS011;33618;49.972;8.242;2023-09-19T12:54:15;3.35;;;1.83;;
47856;SDS011;33618;49.972;8.242;2023-09-19T12:56:43;4.45;;;1.70;;
47856;SDS011;33618;49.972;8.242;2023-09-19T12:59:14;5.88;;;1.95;;
47856;SDS011;33618;49.972;8.242;2023-09-19T13:01:42;4.60;;;1.75;;
47856;SDS011;33618;49.972;8.242;2023-09-19T13:04:20;5.15;;;1.90;;
47856;SDS011;33618;49.972;8.242;2023-09-19T13:06:56;4.47;;;1.50;;
47856;SDS011;33618;49.972;8.242;2023-09-19T13:09:28;3.42;;;1.40;;
47856;SDS011;33618;49.972;8.242;2023-09-19T13:12:01;4.78;;;1.80;;
47856;SDS011;33618;49.972;8.242;2023-09-19T13:14:31;4.80;;;1.70;;
47856;SDS011;33618;49.972;8.242;2023-09-19T13:17:04;4.32;;;1.95;;
47856;SDS011;33618;49.972;8.242;2023-09-19T13:19:47;3.70;;;1.50;;
47856;SDS011;33618;49.972;8.242;2023-09-19T13:25:02;3.80;;;1.70;;
47856;SDS011;33618;49.972;8.242;2023-09-19T13:27:30;5.40;;;1.90;;
47856;SDS011;33618;49.972;8.242;2023-09-19T13:29:58;2.38;;;1.60;;
47856;SDS011;33618;49.972;8.242;2023-09-19T13:32:25;3.58;;;1.60;;
47856;SDS011;33618;49.972;8.242;2023-09-19T13:34:52;3.30;;;1.50;;
47856;SDS011;33618;49.972;8.242;2023-09-19T13:37:19;2.85;;;1.70;;
47856;SDS011;33618;49.972;8.242;2023-09-19T13:39:46;3.30;;;1.50;;
47856;SDS011;33618;49.972;8.242;2023-09-19T13:42:14;2.22;;;1.50;;
47856;SDS011;33618;49.972;8.242;2023-09-19T13:44:42;3.28;;;1.50;;
47856;SDS011;33618;49.972;8.242;2023-09-19T13:47:09;2.47;;;1.65;;
47856;SDS011;33618;49.972;8.242;2023-09-19T13:49:39;2.60;;;1.45;;
47856;SDS011;33618;49.972;8.242;2023-09-19T13:52:07;2.97;;;1.70;;
47856;SDS011;33618;49.972;8.242;2023-09-19T13:54:34;2.75;;;1.50;;
47856;SDS011;33618;49.972;8.242;2023-09-19T13:57:01;2.40;;;1.40;;
47856;SDS011;33618;49.972;8.242;2023-09-19T13:59:28;2.95;;;1.50;;
47856;SDS011;33618;49.972;8.242;2023-09-19T14:01:56;3.20;;;1.55;;
47856;SDS011;33618;49.972;8.242;2023-09-19T14:04:23;2.47;;;1.50;;
47856;SDS011;33618;49.972;8.242;2023-09-19T14:06:50;2.03;;;1.33;;
47856;SDS011;33618;49.972;8.242;2023-09-19T14:09:17;1.77;;;1.38;;
47856;SDS011;33618;49.972;8.242;2023-09-19T14:11:45;2.63;;;1.55;;
47856;SDS011;33618;49.972;8.242;2023-09-19T14:14:14;2.40;;;1.30;;
47856;SDS011;33618;49.972;8.242;2023-09-19T14:16:41;3.88;;;1.30;;
47856;SDS011;33618;49.972;8.242;2023-09-19T14:19:08;2.40;;;1.52;;
47856;SDS011;33618;49.972;8.242;2023-09-19T14:21:35;6.18;;;1.55;;
47856;SDS011;33618;49.972;8.242;2023-09-19T14:24:05;2.25;;;1.50;;
47856;SDS011;33618;49.972;8.242;2023-09-19T14:26:36;2.85;;;1.30;;
47856;SDS011;33618;49.972;8.242;2023-09-19T14:29:02;2.28;;;1.50;;
47856;SDS011;33618;49.972;8.242;2023-09-19T14:31:30;2.30;;;1.40;;
47856;SDS011;33618;49.972;8.242;2023-09-19T14:33:57;4.63;;;1.50;;
47856;SDS011;33618;49.972;8.242;2023-09-19T14:36:25;2.10;;;1.30;;
47856;SDS011;33618;49.972;8.242;2023-09-19T14:38:52;6.25;;;1.65;;
47856;SDS011;33618;49.972;8.242;2023-09-19T14:41:25;3.20;;;1.50;;
47856;SDS011;33618;49.972;8.242;2023-09-19T14:43:52;5.05;;;1.65;;
47856;SDS011;33618;49.972;8.242;2023-09-19T14:46:19;3.60;;;1.63;;
47856;SDS011;33618;49.972;8.242;2023-09-19T14:48:46;3.92;;;1.40;;
47856;SDS011;33618;49.972;8.242;2023-09-19T14:51:13;2.97;;;1.63;;
47856;SDS011;33618;49.972;8.242;2023-09-19T14:53:40;2.22;;;1.40;;
47856;SDS011;33618;49.972;8.242;2023-09-19T14:56:08;2.58;;;1.60;;
47856;SDS011;33618;49.972;8.242;2023-09-19T14:58:36;2.00;;;1.48;;
47856;SDS011;33618;49.972;8.242;2023-09-19T15:01:06;1.80;;;1.20;;
47856;SDS011;33618;49.972;8.242;2023-09-19T15:03:38;3.35;;;1.30;;
47856;SDS011;33618;49.972;8.242;2023-09-19T15:06:07;1.83;;;1.23;;
47856;SDS011;33618;49.972;8.242;2023-09-19T15:08:41;2.08;;;1.48;;
47856;SDS011;33618;49.972;8.242;2023-09-19T15:11:15;3.97;;;1.20;;
47856;SDS011;33618;49.972;8.242;2023-09-19T15:13:47;3.22;;;1.30;;
47856;SDS011;33618;49.972;8.242;2023-09-19T15:16:14;2.45;;;1.45;;
47856;SDS011;33618;49.972;8.242;2023-09-19T15:18:42;2.88;;;1.38;;
47856;SDS011;33618;49.972;8.242;2023-09-19T15:21:11;2.92;;;1.42;;
47856;SDS011;33618;49.972;8.242;2023-09-19T15:23:41;3.15;;;1.20;;
47856;SDS011;33618;49.972;8.242;2023-09-19T15:26:13;1.92;;;1.23;;
47856;SDS011;33618;49.972;8.242;2023-09-19T15:28:43;1.88;;;1.20;;
47856;SDS011;33618;49.972;8.242;2023-09-19T15:31:11;2.13;;;1.27;;
47856;SDS011;33618;49.972;8.242;2023-09-19T15:33:39;1.67;;;1.20;;
47856;SDS011;33618;49.972;8.242;2023-09-19T15:36:07;2.13;;;1.38;;
47856;SDS011;33618;49.972;8.242;2023-09-19T15:38:54;4.13;;;1.33;;
47856;SDS011;33618;49.972;8.242;2023-09-19T15:41:38;1.70;;;1.10;;
47856;SDS011;33618;49.972;8.242;2023-09-19T15:44:11;2.08;;;1.30;;
47856;SDS011;33618;49.972;8.242;2023-09-19T15:46:40;3.90;;;1.38;;
47856;SDS011;33618;49.972;8.242;2023-09-19T15:49:07;1.65;;;1.27;;
47856;SDS011;33618;49.972;8.242;2023-09-19T15:51:35;4.20;;;1.27;;
47856;SDS011;33618;49.972;8.242;2023-09-19T15:54:08;2.95;;;1.13;;